sensor_id;sensor_type;location;lat;lon;timestamp;P1;durP1;ratioP1;P2;durP2;ratioP2
11618;SDS011;5865;48.776;9.280;2022-10-16T00:53:40;3.80;;;1.98;;
11618;SDS011;5865;48.776;9.280;2022-10-16T00:56:22;2.45;;;1.70;;
11618;SDS011;5865;48.776;9.280;2022-10-16T00:59:03;1.88;;;1.67;;
11618;SDS011;5865;48.776;9.280;2022-10-16T01:01:56;3.60;;;1.92;;
11618;SDS011;5865;48.776;9.280;2022-10-16T01:04:39;2.00;;;1.45;;
11618;SDS011;5865;48.776;9.280;2022-10-16T01:07:26;2.58;;;2.00;;
11618;SDS011;5865;48.776;9.280;2022-10-16T02:50:59;2.03;;;1.42;;
11618;SDS011;5865;48.776;9.280;2022-10-16T02:53:40;1.70;;;1.60;;
11618;SDS011;5865;48.776;9.280;2022-10-16T02:56:21;2.55;;;2.13;;
11618;SDS011;5865;48.776;9.280;2022-10-16T02:59:02;2.63;;;1.60;;
11618;SDS011;5865;48.776;9.280;2022-10-16T03:01:44;2.92;;;2.00;;
11618;SDS011;5865;48.776;9.280;2022-10-16T04:08:31;2.67;;;1.40;;
11618;SDS011;5865;48.776;9.280;2022-10-16T04:10:59;3.60;;;1.50;;
11618;SDS011;5865;48.776;9.280;2022-10-16T04:13:26;2.88;;;1.58;;
11618;SDS011;5865;48.776;9.280;2022-10-16T04:15:53;1.93;;;1.30;;
11618;SDS011;5865;48.776;9.280;2022-10-16T04:18:20;3.23;;;1.20;;
11618;SDS011;5865;48.776;9.280;2022-10-16T04:20:48;3.47;;;1.55;;
11618;SDS011;5865;48.776;9.280;2022-10-16T04:23:15;2.70;;;1.30;;
11618;SDS011;5865;48.776;9.280;2022-10-16T04:25:43;2.78;;;1.60;;
11618;SDS011;5865;48.776;9.280;2022-10-16T04:28:10;1.60;;;1.50;;
11618;SDS011;5865;48.776;9.280;2022-10-16T04:30:37;3.00;;;1.45;;
11618;SDS011;5865;48.776;9.280;2022-10-16T04:33:04;1.65;;;1.20;;
11618;SDS011;5865;48.776;9.280;2022-10-16T04:35:31;1.40;;;1.30;;
11618;SDS011;5865;48.776;9.280;2022-10-16T04:37:58;1.40;;;1.27;;
11618;SDS011;5865;48.776;9.280;2022-10-16T04:40:25;2.15;;;1.73;;
11618;SDS011;5865;48.776;9.280;2022-10-16T04:42:54;2.50;;;1.60;;
11618;SDS011;5865;48.776;9.280;2022-10-16T04:45:21;3.55;;;1.40;;
11618;SDS011;5865;48.776;9.280;2022-10-16T04:47:48;3.30;;;1.40;;
11618;SDS011;5865;48.776;9.280;2022-10-16T04:50:15;3.50;;;1.30;;
11618;SDS011;5865;48.776;9.280;2022-10-16T04:52:59;2.30;;;1.30;;
11618;SDS011;5865;48.776;9.280;2022-10-16T04:55:26;3.08;;;1.50;;
11618;SDS011;5865;48.776;9.280;2022-10-16T04:57:55;4.22;;;1.73;;
11618;SDS011;5865;48.776;9.280;2022-10-16T05:00:22;3.10;;;1.20;;
11618;SDS011;5865;48.776;9.280;2022-10-16T05:02:49;3.40;;;1.30;;
11618;SDS011;5865;48.776;9.280;2022-10-16T05:05:16;2.47;;;1.10;;
11618;SDS011;5865;48.776;9.280;2022-10-16T05:07:44;2.42;;;1.40;;
11618;SDS011;5865;48.776;9.280;2022-10-16T05:10:11;2.35;;;1.45;;
11618;SDS011;5865;48.776;9.280;2022-10-16T05:12:38;1.40;;;1.27;;
11618;SDS011;5865;48.776;9.280;2022-10-16T05:15:07;3.05;;;1.40;;
11618;SDS011;5865;48.776;9.280;2022-10-16T05:17:35;1.60;;;1.50;;
11618;SDS011;5865;48.776;9.280;2022-10-16T05:20:02;1.60;;;1.25;;
11618;SDS011;5865;48.776;9.280;2022-10-16T05:22:29;1.30;;;1.20;;
11618;SDS011;5865;48.776;9.280;2022-10-16T05:24:56;2.07;;;1.60;;
11618;SDS011;5865;48.776;9.280;2022-10-16T05:27:23;4.27;;;1.50;;
11618;SDS011;5865;48.776;9.280;2022-10-16T05:29:50;1.40;;;1.30;;
11618;SDS011;5865;48.776;9.280;2022-10-16T05:32:19;2.80;;;1.57;;
11618;SDS011;5865;48.776;9.280;2022-10-16T05:34:45;2.50;;;1.30;;
11618;SDS011;5865;48.776;9.280;2022-10-16T05:37:12;1.47;;;1.37;;
11618;SDS011;5865;48.776;9.280;2022-10-16T05:39:39;1.40;;;1.30;;
11618;SDS011;5865;48.776;9.280;2022-10-16T05:42:06;2.23;;;1.20;;
11618;SDS011;5865;48.776;9.280;2022-10-16T05:44:33;2.80;;;1.53;;
11618;SDS011;5865;48.776;9.280;2022-10-16T05:47:00;5.77;;;3.47;;
11618;SDS011;5865;48.776;9.280;2022-10-16T05:49:29;4.43;;;3.60;;
11618;SDS011;5865;48.776;9.280;2022-10-16T05:51:56;2.60;;;2.40;;
11618;SDS011;5865;48.776;9.280;2022-10-16T05:54:23;4.90;;;2.10;;
11618;SDS011;5865;48.776;9.280;2022-10-16T05:56:50;3.50;;;2.80;;
11618;SDS011;5865;48.776;9.280;2022-10-16T05:59:16;2.97;;;2.77;;
11618;SDS011;5865;48.776;9.280;2022-10-16T06:01:43;5.50;;;2.90;;
11618;SDS011;5865;48.776;9.280;2022-10-16T06:04:11;5.20;;;1.93;;
11618;SDS011;5865;48.776;9.280;2022-10-16T06:06:39;4.60;;;1.63;;
11618;SDS011;5865;48.776;9.280;2022-10-16T06:09:08;1.80;;;1.30;;
11618;SDS011;5865;48.776;9.280;2022-10-16T06:11:36;1.20;;;1.00;;
11618;SDS011;5865;48.776;9.280;2022-10-16T06:14:03;1.30;;;1.20;;
11618;SDS011;5865;48.776;9.280;2022-10-16T06:16:32;1.20;;;1.10;;
11618;SDS011;5865;48.776;9.280;2022-10-16T06:18:59;1.88;;;1.30;;
11618;SDS011;5865;48.776;9.280;2022-10-16T06:21:27;3.67;;;1.83;;
11618;SDS011;5865;48.776;9.280;2022-10-16T06:23:56;1.93;;;1.53;;
11618;SDS011;5865;48.776;9.280;2022-10-16T06:26:24;1.75;;;1.63;;
11618;SDS011;5865;48.776;9.280;2022-10-16T06:28:53;2.10;;;1.77;;
11618;SDS011;5865;48.776;9.280;2022-10-16T06:31:21;2.67;;;2.25;;
11618;SDS011;5865;48.776;9.280;2022-10-16T06:33:52;1.93;;;1.73;;
11618;SDS011;5865;48.776;9.280;2022-10-16T06:36:20;3.33;;;1.70;;
11618;SDS011;5865;48.776;9.280;2022-10-16T06:38:47;3.17;;;2.00;;
11618;SDS011;5865;48.776;9.280;2022-10-16T06:41:19;2.90;;;1.60;;
11618;SDS011;5865;48.776;9.280;2022-10-16T06:43:48;3.40;;;1.90;;
11618;SDS011;5865;48.776;9.280;2022-10-16T06:46:15;1.70;;;1.60;;
11618;SDS011;5865;48.776;9.280;2022-10-16T06:48:44;1.70;;;1.60;;
11618;SDS011;5865;48.776;9.280;2022-10-16T06:51:12;6.00;;;2.10;;
11618;SDS011;5865;48.776;9.280;2022-10-16T06:53:41;2.22;;;1.90;;
11618;SDS011;5865;48.776;9.280;2022-10-16T06:56:09;2.03;;;1.80;;
11618;SDS011;5865;48.776;9.280;2022-10-16T06:58:38;1.77;;;1.40;;
11618;SDS011;5865;48.776;9.280;2022-10-16T07:01:16;1.55;;;1.45;;
11618;SDS011;5865;48.776;9.280;2022-10-16T07:04:08;3.78;;;1.60;;
11618;SDS011;5865;48.776;9.280;2022-10-16T07:07:22;2.78;;;1.52;;
11618;SDS011;5865;48.776;9.280;2022-10-16T07:10:41;1.73;;;1.40;;
11618;SDS011;5865;48.776;9.280;2022-10-16T07:26:47;1.90;;;1.70;;
11618;SDS011;5865;48.776;9.280;2022-10-16T07:37:45;3.70;;;3.40;;
11618;SDS011;5865;48.776;9.280;2022-10-16T08:25:19;2.95;;;1.15;;
11618;SDS011;5865;48.776;9.280;2022-10-16T08:27:58;2.47;;;1.23;;
11618;SDS011;5865;48.776;9.280;2022-10-16T08:43:50;1.85;;;1.10;;
11618;SDS011;5865;48.776;9.280;2022-10-16T08:46:51;3.90;;;1.60;;
11618;SDS011;5865;48.776;9.280;2022-10-16T08:49:36;1.70;;;1.10;;
11618;SDS011;5865;48.776;9.280;2022-10-16T08:52:16;2.85;;;1.10;;
11618;SDS011;5865;48.776;9.280;2022-10-16T08:54:50;2.72;;;1.10;;
11618;SDS011;5865;48.776;9.280;2022-10-16T08:57:27;2.75;;;1.48;;
11618;SDS011;5865;48.776;9.280;2022-10-16T09:00:05;3.80;;;1.15;;
11618;SDS011;5865;48.776;9.280;2022-10-16T09:02:40;1.60;;;1.13;;
11618;SDS011;5865;48.776;9.280;2022-10-16T09:05:20;2.85;;;1.10;;
11618;SDS011;5865;48.776;9.280;2022-10-16T09:07:55;2.28;;;1.20;;
11618;SDS011;5865;48.776;9.280;2022-10-16T09:10:31;3.15;;;1.10;;
11618;SDS011;5865;48.776;9.280;2022-10-16T09:13:03;1.77;;;1.00;;
11618;SDS011;5865;48.776;9.280;2022-10-16T09:15:46;3.75;;;1.30;;
11618;SDS011;5865;48.776;9.280;2022-10-16T09:18:20;2.38;;;1.30;;
11618;SDS011;5865;48.776;9.280;2022-10-16T09:20:51;3.80;;;1.38;;
11618;SDS011;5865;48.776;9.280;2022-10-16T09:23:27;1.73;;;1.50;;
11618;SDS011;5865;48.776;9.280;2022-10-16T09:25:56;1.63;;;1.33;;
11618;SDS011;5865;48.776;9.280;2022-10-16T09:28:24;2.80;;;1.40;;
11618;SDS011;5865;48.776;9.280;2022-10-16T09:30:53;3.58;;;1.48;;
11618;SDS011;5865;48.776;9.280;2022-10-16T09:33:20;3.58;;;1.30;;
11618;SDS011;5865;48.776;9.280;2022-10-16T09:35:50;2.38;;;1.30;;
11618;SDS011;5865;48.776;9.280;2022-10-16T09:38:24;3.00;;;1.40;;
11618;SDS011;5865;48.776;9.280;2022-10-16T09:40:53;1.98;;;1.30;;
11618;SDS011;5865;48.776;9.280;2022-10-16T09:43:22;2.55;;;1.30;;
11618;SDS011;5865;48.776;9.280;2022-10-16T09:45:54;3.95;;;1.40;;
11618;SDS011;5865;48.776;9.280;2022-10-16T09:48:26;1.50;;;1.30;;
11618;SDS011;5865;48.776;9.280;2022-10-16T09:51:03;1.50;;;1.20;;
11618;SDS011;5865;48.776;9.280;2022-10-16T09:53:39;3.47;;;1.50;;
11618;SDS011;5865;48.776;9.280;2022-10-16T09:56:09;3.55;;;1.52;;
11618;SDS011;5865;48.776;9.280;2022-10-16T09:58:41;3.33;;;1.40;;
11618;SDS011;5865;48.776;9.280;2022-10-16T10:01:13;2.78;;;1.30;;
11618;SDS011;5865;48.776;9.280;2022-10-16T10:03:42;3.95;;;1.40;;
11618;SDS011;5865;48.776;9.280;2022-10-16T10:06:17;5.18;;;1.60;;
11618;SDS011;5865;48.776;9.280;2022-10-16T10:08:56;3.28;;;1.50;;
11618;SDS011;5865;48.776;9.280;2022-10-16T10:11:36;4.07;;;1.60;;
11618;SDS011;5865;48.776;9.280;2022-10-16T10:14:10;2.72;;;1.38;;
11618;SDS011;5865;48.776;9.280;2022-10-16T10:16:45;3.60;;;1.60;;
11618;SDS011;5865;48.776;9.280;2022-10-16T10:19:14;1.98;;;1.30;;
11618;SDS011;5865;48.776;9.280;2022-10-16T10:21:44;3.38;;;1.40;;
11618;SDS011;5865;48.776;9.280;2022-10-16T10:24:13;4.80;;;1.50;;
11618;SDS011;5865;48.776;9.280;2022-10-16T10:26:44;2.53;;;1.50;;
11618;SDS011;5865;48.776;9.280;2022-10-16T10:29:20;2.83;;;1.40;;
11618;SDS011;5865;48.776;9.280;2022-10-16T10:32:05;2.85;;;1.35;;
11618;SDS011;5865;48.776;9.280;2022-10-16T10:34:45;4.90;;;1.90;;
11618;SDS011;5865;48.776;9.280;2022-10-16T10:37:26;2.38;;;1.30;;
11618;SDS011;5865;48.776;9.280;2022-10-16T10:40:05;2.00;;;1.30;;
11618;SDS011;5865;48.776;9.280;2022-10-16T10:42:42;2.47;;;1.20;;
11618;SDS011;5865;48.776;9.280;2022-10-16T10:45:16;2.33;;;1.30;;
11618;SDS011;5865;48.776;9.280;2022-10-16T10:47:52;1.23;;;1.10;;
11618;SDS011;5865;48.776;9.280;2022-10-16T10:50:30;3.30;;;1.50;;
11618;SDS011;5865;48.776;9.280;2022-10-16T10:53:07;1.65;;;1.15;;
11618;SDS011;5865;48.776;9.280;2022-10-16T10:55:44;1.40;;;1.30;;
11618;SDS011;5865;48.776;9.280;2022-10-16T10:58:29;2.35;;;1.35;;
11618;SDS011;5865;48.776;9.280;2022-10-16T11:01:08;1.80;;;1.05;;
11618;SDS011;5865;48.776;9.280;2022-10-16T11:03:51;2.03;;;1.15;;
11618;SDS011;5865;48.776;9.280;2022-10-16T11:06:35;1.40;;;1.10;;
11618;SDS011;5865;48.776;9.280;2022-10-16T11:09:07;3.00;;;1.00;;
11618;SDS011;5865;48.776;9.280;2022-10-16T11:11:40;2.50;;;1.30;;
11618;SDS011;5865;48.776;9.280;2022-10-16T11:14:12;1.15;;;0.98;;
11618;SDS011;5865;48.776;9.280;2022-10-16T11:16:44;1.80;;;1.10;;
11618;SDS011;5865;48.776;9.280;2022-10-16T11:19:22;2.03;;;1.00;;
11618;SDS011;5865;48.776;9.280;2022-10-16T11:22:00;2.38;;;1.00;;
11618;SDS011;5865;48.776;9.280;2022-10-16T11:24:34;0.82;;;0.80;;
11618;SDS011;5865;48.776;9.280;2022-10-16T11:27:08;2.97;;;1.02;;
11618;SDS011;5865;48.776;9.280;2022-10-16T11:29:40;2.65;;;0.90;;
11618;SDS011;5865;48.776;9.280;2022-10-16T11:32:19;1.25;;;1.08;;
11618;SDS011;5865;48.776;9.280;2022-10-16T11:34:52;1.50;;;1.10;;
11618;SDS011;5865;48.776;9.280;2022-10-16T11:37:23;2.15;;;1.10;;
11618;SDS011;5865;48.776;9.280;2022-10-16T11:39:54;2.97;;;1.00;;
11618;SDS011;5865;48.776;9.280;2022-10-16T11:42:27;3.28;;;1.25;;
11618;SDS011;5865;48.776;9.280;2022-10-16T11:45:00;4.97;;;1.10;;
11618;SDS011;5865;48.776;9.280;2022-10-16T11:47:34;1.05;;;1.00;;
11618;SDS011;5865;48.776;9.280;2022-10-16T11:50:11;0.90;;;0.90;;
11618;SDS011;5865;48.776;9.280;2022-10-16T11:52:48;0.80;;;0.80;;
11618;SDS011;5865;48.776;9.280;2022-10-16T11:55:20;1.35;;;1.00;;
11618;SDS011;5865;48.776;9.280;2022-10-16T11:57:50;1.75;;;0.90;;
11618;SDS011;5865;48.776;9.280;2022-10-16T12:00:21;2.47;;;1.17;;
11618;SDS011;5865;48.776;9.280;2022-10-16T12:02:53;2.38;;;1.20;;
11618;SDS011;5865;48.776;9.280;2022-10-16T12:05:30;1.38;;;1.00;;
11618;SDS011;5865;48.776;9.280;2022-10-16T12:08:07;1.33;;;1.20;;
11618;SDS011;5865;48.776;9.280;2022-10-16T12:10:37;2.75;;;1.20;;
11618;SDS011;5865;48.776;9.280;2022-10-16T12:13:05;2.08;;;1.20;;
11618;SDS011;5865;48.776;9.280;2022-10-16T12:18:49;1.80;;;1.10;;
11618;SDS011;5865;48.776;9.280;2022-10-16T12:21:37;1.10;;;1.00;;
11618;SDS011;5865;48.776;9.280;2022-10-16T12:24:04;2.33;;;1.17;;
11618;SDS011;5865;48.776;9.280;2022-10-16T12:26:32;2.55;;;1.23;;
11618;SDS011;5865;48.776;9.280;2022-10-16T12:29:12;1.80;;;1.17;;
11618;SDS011;5865;48.776;9.280;2022-10-16T12:31:43;2.35;;;1.10;;
11618;SDS011;5865;48.776;9.280;2022-10-16T12:34:20;2.78;;;1.52;;
11618;SDS011;5865;48.776;9.280;2022-10-16T12:36:51;1.95;;;1.17;;
11618;SDS011;5865;48.776;9.280;2022-10-16T12:39:21;2.42;;;1.00;;
11618;SDS011;5865;48.776;9.280;2022-10-16T12:42:00;1.77;;;1.50;;
11618;SDS011;5865;48.776;9.280;2022-10-16T12:44:31;1.52;;;1.00;;
11618;SDS011;5865;48.776;9.280;2022-10-16T12:46:59;2.63;;;1.00;;
11618;SDS011;5865;48.776;9.280;2022-10-16T12:49:30;2.30;;;1.20;;
11618;SDS011;5865;48.776;9.280;2022-10-16T12:52:03;2.63;;;1.10;;
11618;SDS011;5865;48.776;9.280;2022-10-16T12:54:31;1.60;;;1.10;;
11618;SDS011;5865;48.776;9.280;2022-10-16T12:57:05;1.10;;;0.93;;
11618;SDS011;5865;48.776;9.280;2022-10-16T12:59:42;1.00;;;0.90;;
11618;SDS011;5865;48.776;9.280;2022-10-16T13:02:25;1.85;;;0.90;;
11618;SDS011;5865;48.776;9.280;2022-10-16T13:05:17;1.10;;;1.00;;
11618;SDS011;5865;48.776;9.280;2022-10-16T13:07:55;1.20;;;1.10;;
11618;SDS011;5865;48.776;9.280;2022-10-16T13:10:34;2.38;;;1.25;;
11618;SDS011;5865;48.776;9.280;2022-10-16T13:13:14;3.40;;;1.10;;
11618;SDS011;5865;48.776;9.280;2022-10-16T13:16:04;1.23;;;1.13;;
11618;SDS011;5865;48.776;9.280;2022-10-16T13:18:41;1.10;;;1.00;;
11618;SDS011;5865;48.776;9.280;2022-10-16T13:21:18;1.73;;;1.10;;
11618;SDS011;5865;48.776;9.280;2022-10-16T13:23:57;3.97;;;1.30;;
11618;SDS011;5865;48.776;9.280;2022-10-16T13:26:31;2.90;;;1.10;;
11618;SDS011;5865;48.776;9.280;2022-10-16T13:29:05;1.67;;;1.10;;
11618;SDS011;5865;48.776;9.280;2022-10-16T13:31:32;1.33;;;1.23;;
11618;SDS011;5865;48.776;9.280;2022-10-16T13:34:00;2.10;;;1.20;;
11618;SDS011;5865;48.776;9.280;2022-10-16T13:36:28;2.17;;;1.50;;
11618;SDS011;5865;48.776;9.280;2022-10-16T13:39:12;2.42;;;1.13;;
11618;SDS011;5865;48.776;9.280;2022-10-16T13:41:40;1.10;;;1.00;;
11618;SDS011;5865;48.776;9.280;2022-10-16T13:44:11;4.40;;;1.20;;
11618;SDS011;5865;48.776;9.280;2022-10-16T13:46:41;2.30;;;1.15;;
11618;SDS011;5865;48.776;9.280;2022-10-16T13:49:12;1.55;;;1.27;;
11618;SDS011;5865;48.776;9.280;2022-10-16T13:51:40;1.33;;;1.10;;
11618;SDS011;5865;48.776;9.280;2022-10-16T13:54:09;2.28;;;1.10;;
11618;SDS011;5865;48.776;9.280;2022-10-16T13:56:38;2.80;;;1.30;;
11618;SDS011;5865;48.776;9.280;2022-10-16T13:59:06;1.30;;;1.00;;
11618;SDS011;5865;48.776;9.280;2022-10-16T14:01:49;1.35;;;1.10;;
11618;SDS011;5865;48.776;9.280;2022-10-16T14:04:19;1.75;;;1.00;;
11618;SDS011;5865;48.776;9.280;2022-10-16T14:06:46;4.13;;;1.30;;
11618;SDS011;5865;48.776;9.280;2022-10-16T14:09:19;1.30;;;1.20;;
11618;SDS011;5865;48.776;9.280;2022-10-16T14:11:51;1.17;;;1.08;;
11618;SDS011;5865;48.776;9.280;2022-10-16T14:14:20;3.17;;;1.30;;
11618;SDS011;5865;48.776;9.280;2022-10-16T14:16:48;4.65;;;1.17;;
11618;SDS011;5865;48.776;9.280;2022-10-16T14:19:17;1.20;;;1.10;;
11618;SDS011;5865;48.776;9.280;2022-10-16T14:21:48;1.60;;;1.20;;
11618;SDS011;5865;48.776;9.280;2022-10-16T14:24:22;2.05;;;1.30;;
11618;SDS011;5865;48.776;9.280;2022-10-16T14:26:54;2.78;;;1.50;;
11618;SDS011;5865;48.776;9.280;2022-10-16T14:29:22;1.30;;;1.10;;
11618;SDS011;5865;48.776;9.280;2022-10-16T14:31:56;1.92;;;1.10;;
11618;SDS011;5865;48.776;9.280;2022-10-16T14:34:25;1.23;;;1.10;;
11618;SDS011;5865;48.776;9.280;2022-10-16T14:36:55;4.10;;;1.40;;
11618;SDS011;5865;48.776;9.280;2022-10-16T14:39:22;1.83;;;1.10;;
11618;SDS011;5865;48.776;9.280;2022-10-16T14:41:51;2.60;;;1.50;;
11618;SDS011;5865;48.776;9.280;2022-10-16T14:44:23;6.38;;;1.40;;
11618;SDS011;5865;48.776;9.280;2022-10-16T14:46:54;3.50;;;1.40;;
11618;SDS011;5865;48.776;9.280;2022-10-16T14:49:21;1.95;;;1.23;;
11618;SDS011;5865;48.776;9.280;2022-10-16T14:51:50;4.82;;;1.50;;
11618;SDS011;5865;48.776;9.280;2022-10-16T14:54:18;2.58;;;1.13;;
11618;SDS011;5865;48.776;9.280;2022-10-16T14:56:46;3.00;;;1.20;;
11618;SDS011;5865;48.776;9.280;2022-10-16T14:59:16;1.55;;;1.10;;
11618;SDS011;5865;48.776;9.280;2022-10-16T15:01:47;1.38;;;1.27;;
11618;SDS011;5865;48.776;9.280;2022-10-16T15:04:14;3.53;;;1.75;;
11618;SDS011;5865;48.776;9.280;2022-10-16T15:06:42;2.72;;;1.40;;
11618;SDS011;5865;48.776;9.280;2022-10-16T15:09:09;4.50;;;1.38;;
11618;SDS011;5865;48.776;9.280;2022-10-16T15:11:36;3.30;;;1.92;;
11618;SDS011;5865;48.776;9.280;2022-10-16T15:14:03;3.00;;;1.50;;
11618;SDS011;5865;48.776;9.280;2022-10-16T15:16:30;2.28;;;1.30;;
11618;SDS011;5865;48.776;9.280;2022-10-16T15:18:59;3.00;;;1.27;;
11618;SDS011;5865;48.776;9.280;2022-10-16T15:21:26;4.82;;;1.33;;
11618;SDS011;5865;48.776;9.280;2022-10-16T15:23:54;1.73;;;1.30;;
11618;SDS011;5865;48.776;9.280;2022-10-16T15:26:22;2.15;;;1.10;;
11618;SDS011;5865;48.776;9.280;2022-10-16T15:28:50;3.97;;;1.35;;
11618;SDS011;5865;48.776;9.280;2022-10-16T15:31:16;1.40;;;1.30;;
11618;SDS011;5865;48.776;9.280;2022-10-16T15:33:44;4.63;;;1.77;;
11618;SDS011;5865;48.776;9.280;2022-10-16T15:36:19;2.05;;;1.20;;
11618;SDS011;5865;48.776;9.280;2022-10-16T15:38:51;4.20;;;1.48;;
11618;SDS011;5865;48.776;9.280;2022-10-16T15:41:18;4.45;;;1.40;;
11618;SDS011;5865;48.776;9.280;2022-10-16T15:43:47;1.92;;;1.40;;
11618;SDS011;5865;48.776;9.280;2022-10-16T15:46:14;3.70;;;1.30;;
11618;SDS011;5865;48.776;9.280;2022-10-16T15:48:43;1.73;;;1.50;;
11618;SDS011;5865;48.776;9.280;2022-10-16T15:51:10;4.03;;;1.50;;
11618;SDS011;5865;48.776;9.280;2022-10-16T15:53:38;4.40;;;1.70;;
11618;SDS011;5865;48.776;9.280;2022-10-16T15:56:06;2.70;;;1.63;;
11618;SDS011;5865;48.776;9.280;2022-10-16T15:58:36;4.60;;;1.70;;
11618;SDS011;5865;48.776;9.280;2022-10-16T16:01:03;3.45;;;1.45;;
11618;SDS011;5865;48.776;9.280;2022-10-16T16:03:31;2.80;;;1.40;;
11618;SDS011;5865;48.776;9.280;2022-10-16T16:06:02;6.40;;;1.80;;
11618;SDS011;5865;48.776;9.280;2022-10-16T16:08:31;2.63;;;1.40;;
11618;SDS011;5865;48.776;9.280;2022-10-16T16:11:01;3.17;;;1.30;;
11618;SDS011;5865;48.776;9.280;2022-10-16T16:13:29;6.68;;;1.88;;
11618;SDS011;5865;48.776;9.280;2022-10-16T16:15:56;2.63;;;1.58;;
11618;SDS011;5865;48.776;9.280;2022-10-16T16:18:23;5.55;;;1.80;;
11618;SDS011;5865;48.776;9.280;2022-10-16T16:20:50;3.83;;;2.00;;
11618;SDS011;5865;48.776;9.280;2022-10-16T16:23:17;4.50;;;1.77;;
11618;SDS011;5865;48.776;9.280;2022-10-16T16:25:45;7.03;;;2.28;;
11618;SDS011;5865;48.776;9.280;2022-10-16T16:28:29;3.47;;;1.45;;
11618;SDS011;5865;48.776;9.280;2022-10-16T16:30:56;9.05;;;1.60;;
11618;SDS011;5865;48.776;9.280;2022-10-16T16:33:24;5.03;;;1.63;;
11618;SDS011;5865;48.776;9.280;2022-10-16T16:35:55;4.15;;;1.70;;
11618;SDS011;5865;48.776;9.280;2022-10-16T16:38:22;5.60;;;1.67;;
11618;SDS011;5865;48.776;9.280;2022-10-16T16:40:50;3.60;;;1.75;;
11618;SDS011;5865;48.776;9.280;2022-10-16T16:43:17;3.83;;;1.42;;
11618;SDS011;5865;48.776;9.280;2022-10-16T16:45:45;4.03;;;1.55;;
11618;SDS011;5865;48.776;9.280;2022-10-16T16:48:12;6.82;;;2.03;;
11618;SDS011;5865;48.776;9.280;2022-10-16T16:50:40;6.75;;;1.90;;
11618;SDS011;5865;48.776;9.280;2022-10-16T16:53:07;4.13;;;1.88;;
11618;SDS011;5865;48.776;9.280;2022-10-16T16:55:35;2.15;;;1.95;;
11618;SDS011;5865;48.776;9.280;2022-10-16T16:58:09;5.57;;;1.55;;
11618;SDS011;5865;48.776;9.280;2022-10-16T17:00:41;3.80;;;1.60;;
11618;SDS011;5865;48.776;9.280;2022-10-16T17:03:14;1.70;;;1.60;;
11618;SDS011;5865;48.776;9.280;2022-10-16T17:05:42;2.70;;;1.60;;
11618;SDS011;5865;48.776;9.280;2022-10-16T17:08:10;1.70;;;1.60;;
11618;SDS011;5865;48.776;9.280;2022-10-16T17:10:42;2.42;;;1.50;;
11618;SDS011;5865;48.776;9.280;2022-10-16T17:13:11;3.13;;;1.60;;
11618;SDS011;5865;48.776;9.280;2022-10-16T17:15:43;4.85;;;1.65;;
11618;SDS011;5865;48.776;9.280;2022-10-16T17:18:13;3.05;;;1.50;;
11618;SDS011;5865;48.776;9.280;2022-10-16T17:20:42;7.65;;;2.50;;
11618;SDS011;5865;48.776;9.280;2022-10-16T17:23:10;3.90;;;1.75;;
11618;SDS011;5865;48.776;9.280;2022-10-16T17:25:37;3.33;;;1.70;;
11618;SDS011;5865;48.776;9.280;2022-10-16T17:28:05;2.90;;;1.70;;
11618;SDS011;5865;48.776;9.280;2022-10-16T17:30:33;1.90;;;1.60;;
11618;SDS011;5865;48.776;9.280;2022-10-16T17:33:01;4.95;;;1.70;;
11618;SDS011;5865;48.776;9.280;2022-10-16T17:35:28;1.77;;;1.52;;
11618;SDS011;5865;48.776;9.280;2022-10-16T17:37:55;3.63;;;1.80;;
11618;SDS011;5865;48.776;9.280;2022-10-16T17:40:23;2.63;;;1.63;;
11618;SDS011;5865;48.776;9.280;2022-10-16T17:42:51;3.10;;;1.80;;
11618;SDS011;5865;48.776;9.280;2022-10-16T17:45:18;4.55;;;2.88;;
11618;SDS011;5865;48.776;9.280;2022-10-16T17:47:46;5.97;;;2.17;;
11618;SDS011;5865;48.776;9.280;2022-10-16T17:50:15;3.83;;;2.42;;
11618;SDS011;5865;48.776;9.280;2022-10-16T17:52:46;6.20;;;2.70;;
11618;SDS011;5865;48.776;9.280;2022-10-16T17:55:13;5.43;;;1.77;;
11618;SDS011;5865;48.776;9.280;2022-10-16T17:57:40;2.55;;;1.73;;
11618;SDS011;5865;48.776;9.280;2022-10-16T18:00:08;3.83;;;1.80;;
11618;SDS011;5865;48.776;9.280;2022-10-16T18:02:37;3.42;;;1.75;;
11618;SDS011;5865;48.776;9.280;2022-10-16T18:05:06;4.32;;;2.28;;
11618;SDS011;5865;48.776;9.280;2022-10-16T18:07:38;3.05;;;1.83;;
11618;SDS011;5865;48.776;9.280;2022-10-16T18:10:06;2.85;;;2.00;;
11618;SDS011;5865;48.776;9.280;2022-10-16T18:12:35;5.45;;;2.40;;
11618;SDS011;5865;48.776;9.280;2022-10-16T18:15:02;2.97;;;2.00;;
11618;SDS011;5865;48.776;9.280;2022-10-16T18:17:30;4.57;;;2.08;;
11618;SDS011;5865;48.776;9.280;2022-10-16T18:20:01;4.20;;;2.13;;
11618;SDS011;5865;48.776;9.280;2022-10-16T18:22:28;2.33;;;1.95;;
11618;SDS011;5865;48.776;9.280;2022-10-16T18:24:57;3.78;;;3.30;;
11618;SDS011;5865;48.776;9.280;2022-10-16T18:27:24;2.78;;;1.95;;
11618;SDS011;5865;48.776;9.280;2022-10-16T18:29:51;3.00;;;2.17;;
11618;SDS011;5865;48.776;9.280;2022-10-16T18:32:21;4.25;;;2.33;;
11618;SDS011;5865;48.776;9.280;2022-10-16T18:34:48;4.18;;;2.28;;
11618;SDS011;5865;48.776;9.280;2022-10-16T18:37:16;3.38;;;2.10;;
11618;SDS011;5865;48.776;9.280;2022-10-16T18:39:44;4.07;;;2.75;;
11618;SDS011;5865;48.776;9.280;2022-10-16T18:42:14;3.17;;;2.88;;
11618;SDS011;5865;48.776;9.280;2022-10-16T18:44:42;4.82;;;2.90;;
11618;SDS011;5865;48.776;9.280;2022-10-16T18:47:10;3.10;;;2.80;;
11618;SDS011;5865;48.776;9.280;2022-10-16T18:49:37;2.95;;;2.50;;
11618;SDS011;5865;48.776;9.280;2022-10-16T18:52:04;6.55;;;3.05;;
11618;SDS011;5865;48.776;9.280;2022-10-16T18:54:32;3.63;;;2.70;;
11618;SDS011;5865;48.776;9.280;2022-10-16T18:57:01;8.70;;;5.35;;
11618;SDS011;5865;48.776;9.280;2022-10-16T18:59:30;8.65;;;6.70;;
11618;SDS011;5865;48.776;9.280;2022-10-16T19:02:00;6.78;;;5.13;;
11618;SDS011;5865;48.776;9.280;2022-10-16T19:04:27;4.85;;;4.30;;
11618;SDS011;5865;48.776;9.280;2022-10-16T19:06:54;5.72;;;4.10;;
11618;SDS011;5865;48.776;9.280;2022-10-16T19:09:22;7.65;;;4.18;;
11618;SDS011;5865;48.776;9.280;2022-10-16T19:11:50;4.72;;;3.10;;
11618;SDS011;5865;48.776;9.280;2022-10-16T19:14:17;4.68;;;3.25;;
11618;SDS011;5865;48.776;9.280;2022-10-16T19:17:01;5.03;;;3.30;;
11618;SDS011;5865;48.776;9.280;2022-10-16T19:19:30;3.88;;;3.20;;
11618;SDS011;5865;48.776;9.280;2022-10-16T19:22:02;3.70;;;3.05;;
11618;SDS011;5865;48.776;9.280;2022-10-16T19:24:38;3.40;;;2.88;;
11618;SDS011;5865;48.776;9.280;2022-10-16T19:27:07;3.28;;;2.38;;
11618;SDS011;5865;48.776;9.280;2022-10-16T19:29:34;2.83;;;2.53;;
11618;SDS011;5865;48.776;9.280;2022-10-16T19:32:02;3.13;;;2.55;;
11618;SDS011;5865;48.776;9.280;2022-10-16T19:34:29;3.50;;;2.60;;
11618;SDS011;5865;48.776;9.280;2022-10-16T19:36:56;2.60;;;2.38;;
11618;SDS011;5865;48.776;9.280;2022-10-16T19:39:23;4.90;;;2.70;;
11618;SDS011;5865;48.776;9.280;2022-10-16T19:41:50;2.50;;;2.30;;
11618;SDS011;5865;48.776;9.280;2022-10-16T19:44:18;3.30;;;2.20;;
11618;SDS011;5865;48.776;9.280;2022-10-16T19:46:45;3.40;;;2.10;;
11618;SDS011;5865;48.776;9.280;2022-10-16T19:49:15;3.70;;;2.30;;
11618;SDS011;5865;48.776;9.280;2022-10-16T19:51:46;3.63;;;2.00;;
11618;SDS011;5865;48.776;9.280;2022-10-16T19:54:16;2.58;;;2.22;;
11618;SDS011;5865;48.776;9.280;2022-10-16T19:56:44;3.83;;;1.93;;
11618;SDS011;5865;48.776;9.280;2022-10-16T19:59:13;3.40;;;2.47;;
11618;SDS011;5865;48.776;9.280;2022-10-16T20:01:43;3.08;;;2.13;;
11618;SDS011;5865;48.776;9.280;2022-10-16T20:04:10;2.47;;;2.07;;
11618;SDS011;5865;48.776;9.280;2022-10-16T20:06:43;4.77;;;2.07;;
11618;SDS011;5865;48.776;9.280;2022-10-16T20:09:24;2.85;;;2.10;;
11618;SDS011;5865;48.776;9.280;2022-10-16T20:11:52;5.23;;;2.20;;
11618;SDS011;5865;48.776;9.280;2022-10-16T20:14:19;2.83;;;2.20;;
11618;SDS011;5865;48.776;9.280;2022-10-16T20:16:46;3.47;;;2.17;;
11618;SDS011;5865;48.776;9.280;2022-10-16T20:19:16;4.27;;;2.20;;
11618;SDS011;5865;48.776;9.280;2022-10-16T20:21:45;4.43;;;2.20;;
11618;SDS011;5865;48.776;9.280;2022-10-16T20:24:12;2.87;;;2.30;;
11618;SDS011;5865;48.776;9.280;2022-10-16T20:26:40;3.73;;;2.40;;